createdAt,value
2019-04-14T00:02:05.315Z,50.10
2019-04-14T00:04:37.890Z,52.17
2019-04-14T00:07:05.827Z,49.73
2019-04-14T00:09:33.763Z,49.80
2019-04-14T00:12:04.341Z,48.67
2019-04-14T00:14:31.495Z,49.27
2019-04-14T00:16:59.692Z,51.93
2019-04-14T00:19:28.339Z,49.30
2019-04-14T00:22:00.856Z,51.33
2019-04-14T00:24:29.103Z,51.90
2019-04-14T00:26:57.329Z,50.87
2019-04-14T00:29:26.251Z,52.90
2019-04-14T00:31:55.058Z,51.83
2019-04-14T00:34:40.292Z,52.00
2019-04-14T00:37:33.696Z,49.67
2019-04-14T00:40:15.328Z,50.10
2019-04-14T00:42:58.171Z,46.50
2019-04-14T00:45:41.540Z,44.33
2019-04-14T00:48:24.161Z,53.20
2019-04-14T00:50:52.067Z,47.23
2019-04-14T00:53:20.600Z,47.83
2019-04-14T00:55:48.947Z,50.67
2019-04-14T00:58:17.089Z,47.97
2019-04-14T01:00:45.151Z,50.77
2019-04-14T01:03:13.423Z,44.73
2019-04-14T01:05:41.548Z,48.63
2019-04-14T01:08:09.671Z,46.57
2019-04-14T01:10:37.099Z,48.27
2019-04-14T01:13:06.720Z,47.23
2019-04-14T01:15:46.723Z,49.90
2019-04-14T01:18:03.618Z,44.07
2019-04-14T01:20:31.841Z,47.87
2019-04-14T01:22:59.838Z,49.57
2019-04-14T01:25:28.183Z,49.03
2019-04-14T01:27:56.024Z,50.87
2019-04-14T01:30:24.133Z,52.23
2019-04-14T01:32:52.211Z,48.43
2019-04-14T01:35:20.284Z,48.00
2019-04-14T01:37:48.637Z,46.57
2019-04-14T01:40:16.391Z,46.33
2019-04-14T01:42:44.229Z,48.97
2019-04-14T01:45:14.281Z,52.03
2019-04-14T01:47:42.050Z,57.90
2019-04-14T01:50:10.495Z,46.57
2019-04-14T01:52:57.443Z,47.17
2019-04-14T01:55:44.077Z,49.27
2019-04-14T01:58:25.051Z,49.43
2019-04-14T02:01:01.916Z,46.43
2019-04-14T02:03:30.227Z,48.93
2019-04-14T02:05:58.293Z,45.07
2019-04-14T02:08:26.240Z,53.80
2019-04-14T02:10:54.404Z,47.03
2019-04-14T02:13:22.551Z,52.53
2019-04-14T02:15:50.657Z,49.93
2019-04-14T02:18:18.567Z,45.10
2019-04-14T02:20:46.837Z,48.43
2019-04-14T02:23:14.700Z,51.90
2019-04-14T02:25:42.927Z,49.47
2019-04-14T02:28:11.260Z,47.43
2019-04-14T02:30:48.435Z,53.57
2019-04-14T02:36:14.487Z,49.00
2019-04-14T02:38:43.476Z,55.70
2019-04-14T02:41:02.432Z,47.77
2019-04-14T02:46:02.476Z,52.13
2019-04-14T02:51:07.979Z,51.33
2019-04-14T02:53:32.625Z,51.00
2019-04-14T02:56:07.611Z,48.77
2019-04-14T02:58:48.555Z,52.27
2019-04-14T03:01:21.175Z,53.40
2019-04-14T03:03:33.555Z,48.40
2019-04-14T03:06:01.845Z,47.03
2019-04-14T03:08:29.409Z,47.27
2019-04-14T03:10:55.819Z,55.17
2019-04-14T03:18:38.214Z,47.20
2019-04-14T03:21:29.965Z,56.20
2019-04-14T03:24:03.615Z,51.03
2019-04-14T03:26:41.610Z,48.37
2019-04-14T03:29:16.953Z,53.10
2019-04-14T03:32:11.139Z,52.60
2019-04-14T03:34:34.566Z,53.13
2019-04-14T03:39:33.258Z,51.17
2019-04-14T03:44:19.193Z,53.20
2019-04-14T03:46:41.481Z,47.43
2019-04-14T03:51:57.769Z,52.53
2019-04-14T03:54:05.774Z,51.17
2019-04-14T03:56:44.338Z,52.67
2019-04-14T03:59:12.717Z,53.70
2019-04-14T04:01:41.255Z,50.90
2019-04-14T04:04:09.676Z,48.80
2019-04-14T04:06:37.835Z,55.30
2019-04-14T04:09:06.353Z,58.00
2019-04-14T04:11:34.474Z,48.87
2019-04-14T04:14:02.883Z,52.97
2019-04-14T04:16:55.059Z,54.00
2019-04-14T04:19:49.184Z,49.47
2019-04-14T04:22:30.414Z,51.80
2019-04-14T04:25:18.221Z,54.47
2019-04-14T04:27:54.750Z,53.77
2019-04-14T04:30:42.666Z,51.97
2019-04-14T04:33:17.680Z,47.50
2019-04-14T04:35:50.062Z,53.37
2019-04-14T04:38:37.743Z,57.07
2019-04-14T04:41:05.867Z,48.57
2019-04-14T04:43:34.071Z,52.33
2019-04-14T04:46:02.645Z,59.07
2019-04-14T04:48:30.702Z,47.43
2019-04-14T04:50:58.589Z,47.03
2019-04-14T04:53:26.716Z,49.70
2019-04-14T04:55:54.636Z,48.27
2019-04-14T04:58:22.095Z,47.10
2019-04-14T05:00:52.571Z,46.80
2019-04-14T05:03:18.992Z,54.23
2019-04-14T05:06:07.158Z,45.70
2019-04-14T05:08:35.367Z,39.67
2019-04-14T05:11:20.928Z,47.80
2019-04-14T05:13:48.996Z,47.67
2019-04-14T05:16:17.072Z,43.37
2019-04-14T05:18:44.594Z,47.00
2019-04-14T05:21:12.715Z,47.90
2019-04-14T05:23:41.009Z,49.67
2019-04-14T05:26:09.176Z,45.50
2019-04-14T05:28:37.436Z,51.00
2019-04-14T05:31:05.463Z,44.47
2019-04-14T05:33:33.650Z,42.53
2019-04-14T05:36:02.115Z,45.50
2019-04-14T05:38:32.219Z,38.53
2019-04-14T05:40:58.874Z,44.93
2019-04-14T05:43:34.555Z,40.57
2019-04-14T05:45:56.580Z,39.70
2019-04-14T05:48:25.120Z,46.63
2019-04-14T05:50:53.412Z,45.63
2019-04-14T05:53:21.829Z,37.83
2019-04-14T05:55:50.341Z,40.60
2019-04-14T05:58:18.597Z,43.10
2019-04-14T06:00:46.564Z,43.83
2019-04-14T06:03:14.984Z,40.87
2019-04-14T06:05:42.822Z,41.70
2019-04-14T06:08:10.384Z,37.87
2019-04-14T06:10:37.813Z,39.70
2019-04-14T06:13:05.374Z,39.87
2019-04-14T06:15:34.351Z,41.63
2019-04-14T06:18:01.831Z,37.47
2019-04-14T06:20:29.315Z,35.37
2019-04-14T06:22:56.863Z,34.13
2019-04-14T06:25:24.337Z,35.53
2019-04-14T06:27:51.954Z,35.77
2019-04-14T06:30:38.952Z,28.93
2019-04-14T06:33:28.944Z,34.17
2019-04-14T06:36:34.218Z,33.00
2019-04-14T06:39:13.696Z,29.83
2019-04-14T06:41:41.212Z,31.37
2019-04-14T06:44:08.730Z,31.10
2019-04-14T06:46:36.265Z,32.63
2019-04-14T06:49:03.746Z,35.93
2019-04-14T06:51:31.362Z,34.23
2019-04-14T06:53:58.830Z,29.83
2019-04-14T06:56:26.350Z,29.17
2019-04-14T06:58:53.933Z,29.57
2019-04-14T07:01:21.381Z,27.47
2019-04-14T07:03:48.923Z,34.20
2019-04-14T07:06:16.365Z,28.90
2019-04-14T07:08:43.830Z,27.77
2019-04-14T07:11:11.691Z,29.03
2019-04-14T07:13:40.105Z,27.93
2019-04-14T07:16:07.616Z,31.23
2019-04-14T07:18:35.071Z,28.50
2019-04-14T07:21:02.499Z,27.27
2019-04-14T07:23:29.977Z,26.20
2019-04-14T07:25:57.410Z,29.53
2019-04-14T07:28:24.866Z,30.93
2019-04-14T07:31:20.383Z,27.73
2019-04-14T07:34:08.243Z,31.03
2019-04-14T07:36:53.729Z,25.03
2019-04-14T07:39:37.182Z,33.93
2019-04-14T07:42:08.478Z,30.53
2019-04-14T07:44:58.045Z,32.33
2019-04-14T07:47:29.408Z,31.23
2019-04-14T07:50:15.343Z,27.30
2019-04-14T07:52:53.226Z,29.93
2019-04-14T07:55:39.217Z,35.50
2019-04-14T07:58:29.412Z,29.97
2019-04-14T08:01:01.460Z,29.67
2019-04-14T08:03:38.562Z,28.70
2019-04-14T08:06:05.982Z,29.23
2019-04-14T08:08:33.418Z,27.17
2019-04-14T08:11:00.907Z,28.57
2019-04-14T08:13:28.484Z,25.92
2019-04-14T08:15:55.921Z,30.02
2019-04-14T08:18:23.465Z,25.10
2019-04-14T08:20:50.845Z,29.92
2019-04-14T08:23:18.387Z,26.68
2019-04-14T08:25:45.811Z,27.93
2019-04-14T08:28:13.262Z,29.55
2019-04-14T08:30:40.698Z,28.43
2019-04-14T08:33:08.171Z,29.20
2019-04-14T08:35:35.656Z,23.60
2019-04-14T08:38:03.211Z,29.12
2019-04-14T08:40:30.698Z,30.77
2019-04-14T08:43:13.748Z,27.47
2019-04-14T08:48:55.073Z,30.37
2019-04-14T08:51:40.744Z,33.42
2019-04-14T08:54:26.698Z,26.90
2019-04-14T08:57:01.861Z,29.70
2019-04-14T08:59:44.825Z,31.73
2019-04-14T09:02:23.087Z,30.32
2019-04-14T09:04:58.347Z,30.60
2019-04-14T09:07:29.502Z,33.48
2019-04-14T09:10:01.130Z,32.85
2019-04-14T09:12:49.301Z,33.13
2019-04-14T09:15:16.784Z,32.10
2019-04-14T09:17:44.255Z,35.43
2019-04-14T09:20:11.696Z,32.75
2019-04-14T09:22:39.154Z,33.40
2019-04-14T09:25:07.184Z,34.18
2019-04-14T09:27:34.650Z,32.08
2019-04-14T09:30:02.114Z,32.85
2019-04-14T09:32:30.269Z,31.93
2019-04-14T09:34:57.684Z,34.83
2019-04-14T09:37:25.132Z,34.13
2019-04-14T09:39:52.567Z,35.13
2019-04-14T09:42:20.058Z,32.08
2019-04-14T09:44:47.959Z,32.15
2019-04-14T09:47:15.432Z,31.90
2019-04-14T09:49:42.883Z,30.48
2019-04-14T09:52:10.340Z,31.37
2019-04-14T09:54:37.764Z,27.70
2019-04-14T09:57:05.342Z,31.57
2019-04-14T09:59:32.768Z,32.50
2019-04-14T10:02:00.616Z,34.38
2019-04-14T10:04:28.076Z,31.07
2019-04-14T10:06:55.543Z,32.60
2019-04-14T10:09:22.998Z,27.52
2019-04-14T10:11:54.671Z,28.75
2019-04-14T10:14:19.738Z,28.98
2019-04-14T10:16:47.228Z,32.67
2019-04-14T10:19:14.692Z,28.83
2019-04-14T10:21:42.127Z,27.95
2019-04-14T10:24:09.585Z,28.20
2019-04-14T10:26:38.118Z,29.30
2019-04-14T10:29:05.607Z,30.25
2019-04-14T10:31:33.071Z,28.02
2019-04-14T10:34:00.601Z,26.25
2019-04-14T10:36:28.032Z,27.98
2019-04-14T10:38:55.813Z,30.35
2019-04-14T10:41:23.553Z,29.20
2019-04-14T10:43:51.385Z,32.70
2019-04-14T10:46:18.864Z,29.45
2019-04-14T10:48:46.292Z,26.62
2019-04-14T10:51:14.027Z,28.25
2019-04-14T10:53:41.531Z,32.03
2019-04-14T10:56:08.951Z,27.27
2019-04-14T10:58:36.414Z,25.75
2019-04-14T11:01:04.094Z,30.15
2019-04-14T11:03:31.563Z,28.92
2019-04-14T11:06:07.291Z,30.90
2019-04-14T11:08:34.763Z,33.25
2019-04-14T11:11:02.197Z,30.20
2019-04-14T11:13:29.647Z,28.55
2019-04-14T11:15:57.113Z,33.18
2019-04-14T11:18:24.578Z,34.10
2019-04-14T11:20:52.312Z,33.48
2019-04-14T11:23:19.763Z,32.00
2019-04-14T11:25:47.219Z,35.98
2019-04-14T11:28:14.678Z,35.38
2019-04-14T11:30:42.160Z,34.20
2019-04-14T11:33:15.043Z,31.52
2019-04-14T11:36:02.542Z,37.15
2019-04-14T11:38:43.381Z,37.33
2019-04-14T11:41:14.846Z,30.88
2019-04-14T11:43:42.316Z,32.28
2019-04-14T11:46:09.772Z,31.55
2019-04-14T11:48:37.193Z,31.55
2019-04-14T11:51:04.661Z,31.10
2019-04-14T11:53:32.085Z,30.50
2019-04-14T11:55:59.592Z,28.90
2019-04-14T11:58:29.122Z,34.18
2019-04-14T12:01:18.397Z,36.95
2019-04-14T12:03:59.965Z,31.70
2019-04-14T12:06:49.770Z,29.95
2019-04-14T12:09:39.494Z,30.45
2019-04-14T12:12:08.827Z,29.82
2019-04-14T12:14:36.314Z,27.90
2019-04-14T12:17:03.796Z,33.60
2019-04-14T12:19:31.268Z,28.02
2019-04-14T12:22:08.156Z,31.82
2019-04-14T12:24:28.407Z,28.47
2019-04-14T12:26:55.819Z,33.05
2019-04-14T12:29:24.113Z,29.10
2019-04-14T12:31:53.013Z,30.15
2019-04-14T12:34:20.542Z,26.82
2019-04-14T12:36:48.057Z,25.05
2019-04-14T12:39:20.219Z,26.23
2019-04-14T12:41:52.713Z,27.70
2019-04-14T12:44:40.075Z,24.32
2019-04-14T12:47:25.468Z,22.65
2019-04-14T12:49:53.815Z,23.07
2019-04-14T12:52:23.317Z,22.35
2019-04-14T12:54:50.765Z,23.83
2019-04-14T12:57:24.591Z,28.35
2019-04-14T12:59:52.714Z,21.65
2019-04-14T13:02:22.329Z,25.55
2019-04-14T13:04:49.821Z,24.02
2019-04-14T13:07:17.690Z,23.62
2019-04-14T13:09:45.631Z,25.82
2019-04-14T13:12:13.119Z,25.10
2019-04-14T13:14:40.747Z,21.30
2019-04-14T13:17:08.310Z,24.40
2019-04-14T13:19:36.120Z,23.73
2019-04-14T13:22:04.191Z,20.82
2019-04-14T13:24:31.642Z,23.83
2019-04-14T13:26:59.241Z,23.07
2019-04-14T13:29:27.036Z,22.40
2019-04-14T13:31:54.609Z,23.00
2019-04-14T13:34:22.360Z,22.60
2019-04-14T13:36:50.014Z,20.40
2019-04-14T13:39:17.486Z,24.15
2019-04-14T13:41:45.563Z,23.80
2019-04-14T13:44:13.110Z,22.50
2019-04-14T13:46:41.044Z,24.10
2019-04-14T13:49:08.553Z,24.05
2019-04-14T13:51:36.194Z,24.00
2019-04-14T13:54:04.296Z,22.17
2019-04-14T13:56:31.761Z,24.55
2019-04-14T13:58:59.659Z,20.27
2019-04-14T14:01:27.234Z,25.88
2019-04-14T14:03:55.095Z,22.67
2019-04-14T14:06:23.417Z,27.80
2019-04-14T14:08:51.240Z,23.75
2019-04-14T14:11:47.316Z,28.53
2019-04-14T14:14:27.878Z,23.00
2019-04-14T14:17:00.951Z,26.30
2019-04-14T14:19:42.619Z,23.47
2019-04-14T14:22:26.221Z,27.37
2019-04-14T14:24:58.901Z,23.50
2019-04-14T14:27:26.413Z,24.43
2019-04-14T14:29:54.596Z,26.27
2019-04-14T14:32:36.018Z,27.07
2019-04-14T14:35:07.182Z,24.67
2019-04-14T14:37:35.821Z,23.00
2019-04-14T14:40:04.739Z,24.50
2019-04-14T14:42:32.300Z,25.60
2019-04-14T14:45:17.619Z,26.23
2019-04-14T14:47:56.447Z,21.47
2019-04-14T14:50:30.888Z,23.27
2019-04-14T14:53:11.018Z,21.50
2019-04-14T14:55:28.284Z,24.00
2019-04-14T14:57:56.449Z,23.30
2019-04-14T15:00:34.289Z,20.27
2019-04-14T15:03:02.477Z,23.67
2019-04-14T15:05:30.053Z,21.37
2019-04-14T15:07:57.655Z,25.13
2019-04-14T15:10:25.147Z,23.53
2019-04-14T15:12:52.697Z,18.40
2019-04-14T15:15:20.512Z,20.27
2019-04-14T15:17:48.029Z,20.53
2019-04-14T15:20:16.009Z,22.13
2019-04-14T15:22:43.553Z,20.37
2019-04-14T15:25:11.071Z,18.33
2019-04-14T15:27:38.597Z,23.77
2019-04-14T15:30:08.317Z,17.47
2019-04-14T15:32:36.782Z,17.53
2019-04-14T15:35:04.668Z,18.17
2019-04-14T15:37:32.354Z,15.77
2019-04-14T15:40:00.202Z,15.33
2019-04-14T15:42:27.835Z,16.73
2019-04-14T15:44:55.351Z,17.83
2019-04-14T15:47:22.876Z,17.80
2019-04-14T15:49:51.135Z,15.77
2019-04-14T15:52:18.695Z,14.63
2019-04-14T15:54:47.134Z,14.87
2019-04-14T15:57:25.654Z,13.07
2019-04-14T15:59:59.797Z,11.57
2019-04-14T16:02:43.403Z,12.30
2019-04-14T16:05:24.561Z,10.83
2019-04-14T16:08:06.872Z,9.43
2019-04-14T16:10:39.424Z,9.33
2019-04-14T16:13:29.549Z,8.97
2019-04-14T16:16:16.661Z,8.53
2019-04-14T16:19:03.733Z,9.70
2019-04-14T16:21:31.229Z,11.33
2019-04-14T16:23:58.830Z,7.87
2019-04-14T16:26:34.773Z,10.57
2019-04-14T16:29:27.984Z,7.20
2019-04-14T16:32:07.166Z,7.20
2019-04-14T16:34:46.586Z,8.67
2019-04-14T16:37:14.408Z,8.63
2019-04-14T16:39:41.887Z,8.03
2019-04-14T16:42:09.419Z,8.57
2019-04-14T16:44:36.905Z,9.53
2019-04-14T16:47:04.900Z,7.70
2019-04-14T16:49:32.702Z,8.50
2019-04-14T16:52:07.257Z,8.77
2019-04-14T16:55:00.065Z,8.10
2019-04-14T16:57:50.121Z,7.83
2019-04-14T17:00:24.911Z,9.40
2019-04-14T17:02:52.423Z,8.90
2019-04-14T17:05:19.938Z,7.97
2019-04-14T17:07:47.474Z,8.40
2019-04-14T17:10:14.949Z,7.93
2019-04-14T17:12:42.606Z,7.17
2019-04-14T17:15:29.676Z,9.43
2019-04-14T17:18:13.725Z,8.50
2019-04-14T17:21:07.758Z,8.17
2019-04-14T17:23:42.030Z,8.33
2019-04-14T17:26:15.980Z,8.93
2019-04-14T17:29:12.074Z,9.77
2019-04-14T17:31:47.588Z,8.47
2019-04-14T17:34:40.370Z,7.30
2019-04-14T17:37:33.337Z,7.47
2019-04-14T17:40:10.138Z,8.23
2019-04-14T17:42:57.114Z,8.13
2019-04-14T17:45:43.511Z,8.77
2019-04-14T17:48:29.605Z,8.63
2019-04-14T17:51:07.713Z,8.07
2019-04-14T17:53:46.787Z,7.73
2019-04-14T17:56:24.248Z,7.27
2019-04-14T17:58:59.326Z,7.80
2019-04-14T18:01:37.399Z,7.93
2019-04-14T18:04:20.845Z,9.80
2019-04-14T18:07:01.811Z,8.73
2019-04-14T18:09:49.332Z,8.77
2019-04-14T18:12:35.321Z,9.13
2019-04-14T18:15:11.721Z,7.33
2019-04-14T18:18:04.499Z,10.77
2019-04-14T18:20:39.228Z,7.20
2019-04-14T18:23:06.657Z,8.60
2019-04-14T18:25:34.790Z,7.67
2019-04-14T18:28:39.841Z,7.20
2019-04-14T18:31:29.749Z,8.77
2019-04-14T18:34:15.723Z,8.10
2019-04-14T18:36:49.784Z,7.43
2019-04-14T18:39:35.501Z,9.77
2019-04-14T18:42:22.479Z,10.37
2019-04-14T18:45:05.537Z,9.03
2019-04-14T18:47:45.442Z,8.43
2019-04-14T18:50:21.027Z,7.90
2019-04-14T18:53:05.278Z,8.03
2019-04-14T18:55:58.186Z,8.50
2019-04-14T18:59:00.572Z,8.03
2019-04-14T19:01:31.619Z,8.83
2019-04-14T19:04:02.072Z,9.03
2019-04-14T19:06:28.628Z,8.73
2019-04-14T19:08:56.135Z,10.27
2019-04-14T19:11:37.227Z,11.20
2019-04-14T19:14:05.501Z,9.87
2019-04-14T19:16:39.624Z,9.67
2019-04-14T19:19:07.067Z,9.90
2019-04-14T19:21:34.536Z,12.63
2019-04-14T19:24:01.971Z,14.53
2019-04-14T19:26:29.424Z,13.83
2019-04-14T19:28:56.871Z,12.47
2019-04-14T19:31:24.317Z,11.73
2019-04-14T19:33:51.795Z,13.00
2019-04-14T19:36:19.214Z,14.83
2019-04-14T19:38:46.665Z,17.80
2019-04-14T19:41:14.589Z,13.37
2019-04-14T19:43:42.133Z,14.60
2019-04-14T19:46:09.863Z,14.23
2019-04-14T19:48:37.356Z,12.53
2019-04-14T19:51:04.854Z,15.67
2019-04-14T19:53:32.796Z,13.57
2019-04-14T19:56:00.277Z,15.73
2019-04-14T19:58:28.760Z,16.57
2019-04-14T20:00:56.223Z,19.70
2019-04-14T20:03:23.713Z,18.07
2019-04-14T20:05:51.651Z,18.43
2019-04-14T20:08:19.042Z,19.17
2019-04-14T20:10:46.462Z,19.40
2019-04-14T20:13:13.981Z,19.57
2019-04-14T20:16:13.133Z,20.67
2019-04-14T20:19:10.618Z,20.33
2019-04-14T20:22:09.998Z,19.10
2019-04-14T20:24:42.722Z,20.57
2019-04-14T20:27:21.530Z,17.97
2019-04-14T20:29:51.859Z,22.13
2019-04-14T20:32:22.374Z,19.87
2019-04-14T20:34:49.783Z,19.07
2019-04-14T20:37:17.202Z,20.40
2019-04-14T20:39:44.630Z,21.53
2019-04-14T20:42:12.463Z,21.30
2019-04-14T20:44:39.938Z,20.70
2019-04-14T20:47:08.384Z,20.10
2019-04-14T20:49:38.443Z,19.00
2019-04-14T20:52:06.706Z,20.87
2019-04-14T20:54:34.157Z,19.13
2019-04-14T20:57:01.888Z,20.73
2019-04-14T20:59:29.316Z,22.27
2019-04-14T21:02:03.652Z,19.07
2019-04-14T21:04:42.987Z,21.30
2019-04-14T21:07:22.899Z,20.27
2019-04-14T21:10:12.827Z,17.27
2019-04-14T21:12:52.921Z,23.60
2019-04-14T21:15:48.913Z,20.13
2019-04-14T21:18:38.590Z,19.27
2019-04-14T21:21:40.919Z,22.60
2019-04-14T21:24:15.990Z,19.73
2019-04-14T21:27:03.077Z,21.40
2019-04-14T21:29:44.259Z,20.70
2019-04-14T21:32:17.842Z,23.10
2019-04-14T21:35:13.460Z,19.93
2019-04-14T21:38:04.008Z,20.50
2019-04-14T21:40:43.851Z,21.93
2019-04-14T21:43:11.307Z,20.97
2019-04-14T21:45:38.747Z,19.50
2019-04-14T21:48:06.174Z,24.73
2019-04-14T21:50:33.631Z,21.00
2019-04-14T21:53:01.074Z,20.90
2019-04-14T21:55:28.539Z,19.70
2019-04-14T21:58:14.663Z,21.67
2019-04-14T22:01:41.314Z,22.57
2019-04-14T22:04:32.004Z,21.93
2019-04-14T22:07:09.314Z,23.83
2019-04-14T22:09:36.878Z,22.70
2019-04-14T22:12:06.115Z,23.30
2019-04-14T22:14:33.558Z,27.93
2019-04-14T22:17:00.986Z,22.57
2019-04-14T22:19:28.852Z,26.70
2019-04-14T22:21:56.273Z,26.40
2019-04-14T22:24:24.098Z,23.43
2019-04-14T22:26:51.522Z,23.43
2019-04-14T22:29:18.979Z,25.80
2019-04-14T22:31:46.485Z,30.27
2019-04-14T22:34:13.951Z,26.90
2019-04-14T22:36:41.394Z,26.33
2019-04-14T22:39:13.938Z,24.80
2019-04-14T22:41:41.357Z,26.83
2019-04-14T22:44:08.765Z,26.47
2019-04-14T22:46:36.206Z,25.67
2019-04-14T22:49:03.670Z,26.47
2019-04-14T22:51:31.122Z,27.03
2019-04-14T22:53:58.873Z,32.23
2019-04-14T22:56:38.348Z,27.27
2019-04-14T22:58:55.608Z,28.00
2019-04-14T23:01:27.126Z,28.43
2019-04-14T23:04:12.789Z,25.63
2019-04-14T23:07:05.936Z,29.00
2019-04-14T23:10:04.773Z,27.43
2019-04-14T23:12:57.759Z,26.70
2019-04-14T23:15:47.389Z,27.57
2019-04-14T23:18:34.573Z,32.77
2019-04-14T23:21:10.403Z,29.13
2019-04-14T23:23:56.442Z,29.30
2019-04-14T23:26:23.988Z,29.93
2019-04-14T23:28:51.435Z,30.20
2019-04-14T23:31:18.877Z,29.30
2019-04-14T23:33:46.467Z,30.53
2019-04-14T23:36:13.904Z,29.47
2019-04-14T23:38:42.558Z,28.17
2019-04-14T23:41:10.011Z,37.70
2019-04-14T23:43:37.437Z,30.10
2019-04-14T23:46:04.902Z,29.13
2019-04-14T23:48:32.326Z,30.20
2019-04-14T23:50:59.795Z,28.80
2019-04-14T23:53:27.226Z,27.60
2019-04-14T23:55:54.713Z,33.47
2019-04-14T23:58:22.182Z,32.77
